Time;durP1;ratioP1;P1;durP2;ratioP2;P2;SDS_P1;SDS_P2;PMS_P1;PMS_P2;Temp;Humidity;BMP_temperature;BMP_pressure;BME280_temperature;BME280_humidity;BME280_pressure;Samples;Min_cycle;Max_cycle;Signal;HPM_P1;HPM_P2
2023/06/15 00:02:51;;;;;;;2.40;2.10;;;;;;;20.64;43.00;100224.38;10308364;28;20061;-54
2023/06/15 00:07:53;;;;;;;1.90;1.52;;;;;;;20.60;43.07;100225.81;10296337;28;20050;-54
2023/06/15 00:12:55;;;;;;;3.00;1.73;;;;;;;20.55;43.25;100215.56;10303970;28;20065;-54
2023/06/15 00:17:57;;;;;;;1.50;1.40;;;;;;;20.43;43.26;100207.09;10286161;28;20051;-54
2023/06/15 00:22:59;;;;;;;1.67;1.58;;;;;;;20.48;43.20;100225.47;10280506;28;20054;-54
2023/06/15 00:33:39;;;;;;;2.05;1.85;;;;;;;20.36;43.75;100227.81;10308609;28;20049;-54
2023/06/15 00:38:41;;;;;;;4.50;1.98;;;;;;;20.31;43.79;100232.91;10302147;28;21381;-55
2023/06/15 00:43:42;;;;;;;1.75;1.60;;;;;;;20.20;44.22;100230.69;10292803;28;20496;-54
2023/06/15 00:48:44;;;;;;;2.10;1.90;;;;;;;20.20;44.39;100233.41;10300005;28;20066;-54
2023/06/15 00:53:47;;;;;;;2.33;1.80;;;;;;;20.14;44.14;100230.41;10304377;28;20057;-54
2023/06/15 00:58:49;;;;;;;1.55;1.45;;;;;;;20.07;44.49;100232.19;10290503;28;20230;-53
2023/06/15 01:03:50;;;;;;;2.03;1.83;;;;;;;20.05;44.69;100245.03;10314553;28;20140;-57
2023/06/15 01:08:53;;;;;;;1.83;1.73;;;;;;;20.04;44.22;100248.78;10307196;28;20777;-53
2023/06/15 01:13:57;;;;;;;2.70;1.70;;;;;;;19.94;45.17;100248.22;10313832;28;20046;-53
2023/06/15 01:19:01;;;;;;;2.45;2.25;;;;;;;19.93;45.00;100249.22;10310515;28;20760;-53
2023/06/15 01:24:24;;;;;;;3.28;2.15;;;;;;;19.80;45.45;100239.06;10293260;28;20137;-53
2023/06/15 01:29:26;;;;;;;3.83;2.05;;;;;;;19.83;45.24;100237.84;10307596;28;20719;-53
2023/06/15 01:34:31;;;;;;;2.10;1.80;;;;;;;19.83;45.39;100232.44;10293338;28;20831;-53
2023/06/15 01:39:32;;;;;;;2.75;1.98;;;;;;;19.77;45.20;100237.59;10306450;28;20396;-53
2023/06/15 01:44:34;;;;;;;2.75;2.05;;;;;;;19.71;45.52;100227.50;10307866;28;20260;-53
2023/06/15 01:49:38;;;;;;;3.90;2.07;;;;;;;19.69;46.01;100234.09;10310270;28;20050;-54
2023/06/15 01:54:40;;;;;;;2.05;1.85;;;;;;;19.54;46.01;100225.97;10299057;28;20054;-53
2023/06/15 01:59:42;;;;;;;2.35;2.15;;;;;;;19.57;46.14;100231.81;10286825;28;20046;-53
2023/06/15 02:04:43;;;;;;;2.10;1.90;;;;;;;19.52;46.19;100222.59;10306419;28;20593;-53
2023/06/15 02:09:45;;;;;;;3.35;2.03;;;;;;;19.55;45.68;100227.63;10301679;28;20201;-53
2023/06/15 02:14:48;;;;;;;2.70;2.10;;;;;;;19.56;46.18;100223.91;10306737;28;20076;-53
2023/06/15 02:19:49;;;;;;;2.75;1.88;;;;;;;19.55;46.00;100222.25;10289674;28;20058;-53
2023/06/15 02:24:51;;;;;;;2.50;2.30;;;;;;;19.51;46.04;100220.91;10304386;28;20768;-53
2023/06/15 02:29:52;;;;;;;2.30;2.10;;;;;;;19.49;46.01;100225.69;10291647;28;20054;-54
2023/06/15 02:34:56;;;;;;;2.65;2.03;;;;;;;19.47;46.48;100227.69;10306974;28;20093;-53
2023/06/15 02:39:57;;;;;;;;;;;;;;;19.43;46.35;100222.66;10301989;28;20050;-53
2023/06/15 02:44:59;;;;;;;2.63;2.42;;;;;;;19.28;46.67;100226.38;10301266;28;19984;-55
2023/06/15 02:50:02;;;;;;;3.13;2.50;;;;;;;19.32;46.13;100233.91;10308109;28;20333;-53
2023/06/15 02:55:03;;;;;;;2.88;2.60;;;;;;;19.28;46.60;100240.69;10303992;28;20819;-54
2023/06/15 03:00:08;;;;;;;2.58;2.38;;;;;;;19.24;46.34;100236.66;10304811;28;20115;-53
2023/06/15 03:05:11;;;;;;;2.50;2.30;;;;;;;19.16;46.84;100242.97;10280342;28;20685;-54
2023/06/15 03:10:12;;;;;;;5.80;2.88;;;;;;;18.96;47.40;100253.41;10301618;28;20058;-53
2023/06/15 03:15:14;;;;;;;3.05;2.30;;;;;;;19.03;47.56;100258.91;10301804;28;20306;-54
2023/06/15 03:20:16;;;;;;;6.00;2.58;;;;;;;19.08;47.61;100264.63;10300748;28;20588;-58
2023/06/15 03:25:20;;;;;;;2.65;2.45;;;;;;;19.07;47.14;100261.06;10299619;28;20106;-58
2023/06/15 03:30:21;;;;;;;2.47;2.13;;;;;;;18.91;47.24;100258.47;10304084;28;20049;-58
2023/06/15 03:35:23;;;;;;;2.60;2.40;;;;;;;18.86;47.85;100268.97;10307770;28;20138;-58
2023/06/15 03:40:24;;;;;;;4.47;2.45;;;;;;;18.85;47.93;100276.19;10305391;28;20050;-58
2023/06/15 03:45:26;;;;;;;3.88;2.47;;;;;;;18.79;47.96;100278.75;10292737;28;20068;-58
2023/06/15 03:50:27;;;;;;;4.22;2.90;;;;;;;18.78;48.34;100279.75;10307155;28;20074;-58
2023/06/15 03:55:29;;;;;;;4.22;2.85;;;;;;;18.77;48.53;100278.91;10303534;28;20065;-58
2023/06/15 04:00:31;;;;;;;3.53;2.55;;;;;;;18.73;48.71;100275.75;10300605;28;20125;-58
2023/06/15 04:05:32;;;;;;;3.67;2.38;;;;;;;18.75;48.71;100285.50;10300241;28;20337;-59
2023/06/15 04:10:35;;;;;;;2.55;2.25;;;;;;;18.78;48.88;100285.13;10306010;28;20057;-59
2023/06/15 04:15:36;;;;;;;3.05;2.83;;;;;;;18.78;48.65;100290.53;10302315;28;20061;-59
2023/06/15 04:20:38;;;;;;;2.72;2.53;;;;;;;18.71;49.30;100293.09;10296840;28;20053;-59
2023/06/15 04:25:42;;;;;;;5.68;3.20;;;;;;;18.76;49.18;100292.56;10302399;28;20469;-59
2023/06/15 04:30:52;;;;;;;2.95;2.70;;;;;;;18.75;49.31;100286.34;10292536;28;20395;-59
2023/06/15 04:35:56;;;;;;;4.30;3.78;;;;;;;18.68;49.35;100286.19;10300879;28;20103;-59
2023/06/15 04:40:59;;;;;;;3.45;2.92;;;;;;;18.67;49.56;100295.28;10306836;28;20062;-60
2023/06/15 04:46:02;;;;;;;4.15;2.95;;;;;;;18.75;49.55;100296.28;10315606;28;20053;-60
2023/06/15 04:51:05;;;;;;;3.13;2.70;;;;;;;18.77;49.82;100310.44;10291322;28;20145;-60
2023/06/15 04:56:06;;;;;;;2.90;2.43;;;;;;;18.82;49.33;100303.47;10315141;28;20149;-59
2023/06/15 05:01:08;;;;;;;3.70;3.03;;;;;;;18.78;49.79;100309.41;10312313;28;20050;-59
2023/06/15 05:06:10;;;;;;;3.40;3.10;;;;;;;18.80;50.07;100310.09;10281129;28;20065;-59
2023/06/15 05:11:11;;;;;;;2.85;2.45;;;;;;;18.83;49.28;100301.66;10285121;28;20255;-57
2023/06/15 05:16:13;;;;;;;3.03;2.80;;;;;;;18.95;49.91;100313.75;10294716;28;20526;-58
2023/06/15 05:21:14;;;;;;;4.70;2.40;;;;;;;19.02;49.66;100313.84;10302440;28;21619;-57
2023/06/15 05:26:17;;;;;;;3.08;2.63;;;;;;;19.13;49.24;100315.34;10282127;28;20062;-58
2023/06/15 05:31:30;;;;;;;2.60;2.30;;;;;;;19.21;49.23;100321.50;10304017;28;20531;-58
2023/06/15 05:36:33;;;;;;;3.28;2.80;;;;;;;19.24;48.99;100312.22;10301388;28;20054;-57
2023/06/15 05:41:55;;;;;;;3.15;2.47;;;;;;;19.40;49.28;100319.38;10298171;28;20053;-57
2023/06/15 05:46:56;;;;;;;2.88;2.63;;;;;;;19.47;49.04;100322.19;10281276;28;20057;-58
2023/06/15 05:52:00;;;;;;;3.13;2.58;;;;;;;19.53;48.54;100332.25;10278320;28;20046;-59
2023/06/15 05:57:01;;;;;;;4.10;2.87;;;;;;;19.48;49.52;100345.47;10283478;28;20066;-59
2023/06/15 06:02:03;;;;;;;3.42;2.83;;;;;;;19.58;48.53;100340.66;10256709;28;20399;-58
2023/06/15 06:07:06;;;;;;;3.65;2.30;;;;;;;19.71;49.19;100346.31;10278928;28;20050;-58
2023/06/15 06:12:09;;;;;;;3.17;2.87;;;;;;;19.91;48.53;100351.22;10285138;28;20050;-58
2023/06/15 06:17:10;;;;;;;5.90;2.58;;;;;;;20.04;47.97;100347.91;10293953;28;20116;-58
2023/06/15 06:22:20;;;;;;;2.58;2.38;;;;;;;20.20;47.89;100355.84;10284570;28;20046;-59
2023/06/15 06:27:22;;;;;;;2.78;2.40;;;;;;;20.26;47.38;100346.16;10262478;28;20057;-59
2023/06/15 06:32:25;;;;;;;3.80;2.20;;;;;;;20.34;47.31;100356.88;10286291;28;20494;-59
2023/06/15 06:37:27;;;;;;;3.63;2.38;;;;;;;20.43;47.27;100355.78;10296561;28;20778;-58
2023/06/15 06:42:29;;;;;;;4.15;2.03;;;;;;;20.52;46.50;100351.09;10271138;28;20106;-62
2023/06/15 06:47:30;;;;;;;5.05;2.08;;;;;;;20.70;46.29;100344.53;10292696;28;20122;-59
2023/06/15 06:52:32;;;;;;;4.05;3.03;;;;;;;20.94;45.78;100356.91;10296100;28;20054;-58
2023/06/15 06:57:35;;;;;;;3.15;2.45;;;;;;;21.15;45.41;100362.38;10273847;28;20798;-59
2023/06/15 07:02:37;;;;;;;3.28;2.63;;;;;;;21.28;44.84;100358.97;10277651;28;20780;-59
2023/06/15 07:07:38;;;;;;;3.05;2.60;;;;;;;21.42;44.28;100370.78;10284778;28;20140;-59
2023/06/15 07:12:40;;;;;;;2.88;2.28;;;;;;;21.44;44.34;100368.72;10277893;28;20069;-59
2023/06/15 07:17:42;;;;;;;3.33;2.28;;;;;;;21.58;44.06;100369.72;10261545;28;20113;-59
2023/06/15 07:22:45;;;;;;;4.50;2.80;;;;;;;21.79;43.50;100360.75;10292927;28;20042;-60
2023/06/15 07:27:47;;;;;;;4.27;2.50;;;;;;;21.97;43.15;100373.00;10277500;28;20949;-59
2023/06/15 07:32:49;;;;;;;3.53;2.42;;;;;;;22.01;43.72;100368.88;10290030;28;20101;-60
2023/06/15 07:37:50;;;;;;;2.47;1.90;;;;;;;22.25;43.55;100359.47;10267902;28;20065;-59
2023/06/15 07:42:53;;;;;;;4.95;2.65;;;;;;;22.43;42.93;100353.56;10276769;28;20111;-60
2023/06/15 07:47:54;;;;;;;4.38;2.60;;;;;;;22.56;42.69;100356.38;10285623;28;20295;-60
2023/06/15 07:52:56;;;;;;;4.10;2.60;;;;;;;22.66;42.69;100366.03;10270276;28;20494;-60
2023/06/15 07:57:59;;;;;;;3.25;2.42;;;;;;;22.87;41.87;100356.94;10259408;28;20763;-60
2023/06/15 08:03:01;;;;;;;3.20;2.50;;;;;;;22.83;41.42;100353.78;10283007;28;20754;-59
2023/06/15 08:08:02;;;;;;;4.85;2.53;;;;;;;23.07;41.43;100355.13;10292389;28;20073;-59
2023/06/15 08:13:04;;;;;;;3.80;2.70;;;;;;;23.20;40.97;100351.66;10288946;28;20148;-58
2023/06/15 08:18:06;;;;;;;3.00;2.70;;;;;;;23.36;40.73;100350.47;10273837;28;20053;-60
2023/06/15 08:23:08;;;;;;;3.28;2.50;;;;;;;23.48;40.42;100347.97;10288209;28;20101;-59
2023/06/15 08:28:09;;;;;;;3.42;2.50;;;;;;;23.55;40.52;100343.38;10296923;28;20062;-58
2023/06/15 08:33:13;;;;;;;3.22;3.03;;;;;;;23.67;39.48;100350.91;10282257;28;20061;-58
2023/06/15 08:38:15;;;;;;;2.70;2.50;;;;;;;23.74;39.11;100351.78;10267387;28;20140;-61
2023/06/15 08:43:18;;;;;;;3.50;2.95;;;;;;;23.86;39.61;100341.97;10298035;28;20065;-60
2023/06/15 08:48:21;;;;;;;4.40;3.25;;;;;;;23.99;38.99;100331.09;10278967;28;20049;-59
2023/06/15 08:53:27;;;;;;;5.32;2.75;;;;;;;24.11;39.22;100330.44;10293070;28;20737;-58
2023/06/15 08:58:28;;;;;;;3.28;2.63;;;;;;;24.32;38.83;100335.66;10280423;28;20068;-60
2023/06/15 09:03:31;;;;;;;5.30;2.65;;;;;;;24.49;38.40;100325.16;10280185;28;20072;-60
2023/06/15 09:08:35;;;;;;;4.70;2.83;;;;;;;24.61;38.07;100314.47;10274808;28;20050;-60
2023/06/15 09:13:36;;;;;;;3.60;2.47;;;;;;;24.82;37.45;100326.13;10284403;28;20073;-60
2023/06/15 09:18:48;;;;;;;2.83;2.55;;;;;;;24.62;36.46;100321.59;10288281;28;20275;-60
2023/06/15 09:23:50;;;;;;;5.60;2.75;;;;;;;25.01;37.20;100314.31;10278853;28;20057;-60
2023/06/15 09:28:57;;;;;;;5.60;3.10;;;;;;;25.18;36.85;100308.34;10279634;28;20064;-59
2023/06/15 09:34:07;;;;;;;4.43;2.70;;;;;;;25.41;35.10;100308.63;10295363;28;20827;-61
2023/06/15 09:39:11;;;;;;;6.05;2.35;;;;;;;25.59;34.20;100309.78;10296089;28;20058;-59
2023/06/15 09:44:13;;;;;;;2.50;1.88;;;;;;;25.98;32.91;100301.50;10284137;28;20388;-60
2023/06/15 09:49:25;;;;;;;4.65;2.10;;;;;;;26.28;32.00;100312.53;10289553;28;21500;-59
2023/06/15 09:54:35;;;;;;;1.88;1.63;;;;;;;26.50;31.74;100304.75;10293651;28;20133;-59
2023/06/15 09:59:36;;;;;;;3.20;2.20;;;;;;;26.61;31.29;100314.06;10285145;28;20938;-60
2023/06/15 10:04:40;;;;;;;4.47;2.60;;;;;;;26.60;31.06;100312.41;10270708;28;20562;-60
2023/06/15 10:09:48;;;;;;;2.55;1.90;;;;;;;26.76;30.36;100298.16;10297491;28;20050;-59
2023/06/15 10:14:58;;;;;;;5.20;1.70;;;;;;;26.75;30.80;100296.50;10297432;28;21475;-58
2023/06/15 10:20:08;;;;;;;2.72;2.28;;;;;;;26.74;30.12;100294.00;10294191;28;20058;-58
2023/06/15 10:25:11;;;;;;;3.42;2.17;;;;;;;26.64;30.92;100295.31;10297178;28;20069;-59
2023/06/15 10:30:23;;;;;;;3.08;1.65;;;;;;;26.94;28.89;100285.53;10280720;28;20073;-60
2023/06/15 10:35:31;;;;;;;;;;;;;;;26.52;29.62;100290.88;10298692;28;20046;-60
2023/06/15 10:40:40;;;;;;;4.22;1.92;;;;;;;26.94;29.32;100291.00;10285549;28;20044;-60
2023/06/15 10:45:41;;;;;;;2.50;2.30;;;;;;;27.20;29.06;100280.75;10298097;28;20227;-60
2023/06/15 10:50:48;;;;;;;2.63;1.98;;;;;;;27.20;28.78;100283.50;10295832;28;20058;-60
2023/06/15 10:55:54;;;;;;;2.65;2.10;;;;;;;27.44;28.37;100271.59;10263999;28;20055;-61
2023/06/15 11:01:07;;;;;;;3.80;1.80;;;;;;;27.58;28.05;100276.81;10297834;28;20054;-64
2023/06/15 11:06:38;;;;;;;3.88;1.92;;;;;;;27.79;26.75;100272.69;10272026;28;20053;-60
2023/06/15 11:11:43;;;;;;;2.40;2.00;;;;;;;28.03;27.25;100273.56;10295601;28;20525;-60
2023/06/15 11:17:02;;;;;;;3.85;1.77;;;;;;;28.18;26.21;100273.91;10294047;28;20518;-59
2023/06/15 11:22:06;;;;;;;2.88;1.85;;;;;;;28.23;27.32;100262.25;10278037;28;20060;-61
2023/06/15 11:27:09;;;;;;;5.20;3.53;;;;;;;28.40;26.80;100256.84;10294278;28;20054;-60
2023/06/15 11:32:11;;;;;;;3.40;2.00;;;;;;;28.51;26.84;100263.34;10248864;28;20049;-62
2023/06/15 11:37:14;;;;;;;8.40;4.13;;;;;;;28.19;26.44;100267.38;10277321;28;20053;-60
2023/06/15 11:42:16;;;;;;;4.32;2.10;;;;;;;28.38;26.33;100250.78;10269221;28;20050;-60
2023/06/15 11:47:20;;;;;;;2.78;2.50;;;;;;;28.53;26.21;100234.66;10294218;28;20054;-60
2023/06/15 11:52:22;;;;;;;4.20;2.30;;;;;;;28.62;26.26;100248.03;10280396;28;20056;-59
2023/06/15 11:57:25;;;;;;;2.72;2.00;;;;;;;28.31;25.95;100247.34;10286814;28;20398;-60
2023/06/15 12:02:26;;;;;;;4.03;2.30;;;;;;;28.15;26.66;100249.75;10263042;28;20054;-59
2023/06/15 12:07:34;;;;;;;2.83;2.00;;;;;;;28.25;26.17;100242.84;10287965;28;20408;-59
2023/06/15 12:12:40;;;;;;;2.78;1.92;;;;;;;28.45;26.11;100232.34;10286591;28;20195;-57
2023/06/15 12:17:42;;;;;;;3.15;2.22;;;;;;;28.54;25.47;100225.41;10291283;28;20115;-60
2023/06/15 12:22:46;;;;;;;3.15;2.00;;;;;;;28.59;25.48;100218.38;10276066;28;20062;-58
2023/06/15 12:27:49;;;;;;;4.28;1.65;;;;;;;28.60;25.83;100211.81;10283589;28;20553;-59
2023/06/15 12:32:53;;;;;;;2.85;1.77;;;;;;;28.60;25.12;100203.59;10288491;28;20062;-59
2023/06/15 12:37:56;;;;;;;2.43;2.03;;;;;;;28.69;25.61;100204.88;10273189;28;20157;-59
2023/06/15 12:43:03;;;;;;;2.08;1.88;;;;;;;28.61;25.49;100211.56;10282715;28;20584;-65
2023/06/15 12:48:06;;;;;;;4.15;2.40;;;;;;;28.53;25.84;100212.78;10281497;28;20791;-60
2023/06/15 12:53:09;;;;;;;2.17;1.98;;;;;;;28.40;25.45;100213.06;10297019;28;20401;-59
2023/06/15 12:58:12;;;;;;;1.85;1.70;;;;;;;28.37;24.04;100208.06;10280118;28;20121;-59
2023/06/15 13:03:14;;;;;;;3.28;1.90;;;;;;;28.41;24.73;100198.31;10309166;28;20116;-59
2023/06/15 13:08:17;;;;;;;3.88;2.20;;;;;;;28.54;24.37;100197.19;10301205;28;21350;-59
2023/06/15 13:13:18;;;;;;;3.13;2.03;;;;;;;28.46;24.38;100195.66;10301744;28;21080;-60
2023/06/15 13:18:20;;;;;;;1.80;1.33;;;;;;;28.19;23.49;100195.38;10284059;28;20053;-59
2023/06/15 13:23:22;;;;;;;3.63;2.07;;;;;;;27.81;23.88;100194.81;10299314;28;20053;-59
2023/06/15 13:28:23;;;;;;;2.28;1.60;;;;;;;27.98;24.44;100188.66;10280721;28;20296;-59
2023/06/15 13:33:25;;;;;;;6.03;2.17;;;;;;;27.75;24.90;100173.91;10293177;28;20046;-60
2023/06/15 13:38:27;;;;;;;3.47;2.28;;;;;;;28.04;24.27;100177.59;10271903;28;20053;-59
2023/06/15 13:43:30;;;;;;;2.30;1.90;;;;;;;28.10;24.78;100175.75;10294601;28;20062;-59
2023/06/15 13:48:32;;;;;;;;;;;;;;;28.08;24.41;100177.94;10275829;28;20049;-60
2023/06/15 13:53:33;;;;;;;4.00;2.28;;;;;;;27.98;25.19;100161.28;10285942;28;19932;-59
2023/06/15 13:58:35;;;;;;;2.43;2.00;;;;;;;27.92;24.73;100165.78;10295280;28;20064;-64
2023/06/15 14:03:39;;;;;;;2.45;2.20;;;;;;;27.96;23.34;100155.22;10291693;28;20141;-61
2023/06/15 14:08:42;;;;;;;3.22;1.60;;;;;;;27.92;23.95;100156.75;10285834;28;20133;-60
2023/06/15 14:13:50;;;;;;;3.63;1.95;;;;;;;27.92;23.05;100159.50;10301335;28;20065;-59
2023/06/15 14:18:54;;;;;;;5.47;2.05;;;;;;;27.80;23.16;100156.78;10280661;28;20061;-60
2023/06/15 14:23:57;;;;;;;3.75;1.98;;;;;;;27.62;23.44;100157.75;10281433;28;20128;-60
2023/06/15 14:28:59;;;;;;;3.27;1.50;;;;;;;27.62;23.66;100149.53;10294865;28;20113;-60
2023/06/15 14:34:00;;;;;;;2.35;1.63;;;;;;;27.59;23.31;100152.75;10302063;28;20155;-60
2023/06/15 14:39:04;;;;;;;2.65;1.92;;;;;;;27.52;22.51;100145.50;10282041;28;20064;-60
2023/06/15 14:44:07;;;;;;;2.25;1.75;;;;;;;27.49;23.12;100139.69;10301458;28;20053;-60
2023/06/15 14:49:10;;;;;;;2.30;1.80;;;;;;;27.41;23.23;100124.47;10299808;28;20049;-60
2023/06/15 14:54:11;;;;;;;;;;;;;;;27.47;23.07;100142.69;10303811;28;20057;-59
2023/06/15 14:59:13;;;;;;;2.47;1.75;;;;;;;27.41;23.79;100134.56;10296913;28;20024;-59
2023/06/15 15:04:15;;;;;;;4.60;2.20;;;;;;;27.35;23.39;100128.16;10284614;28;20123;-60
2023/06/15 15:09:17;;;;;;;4.13;2.28;;;;;;;27.14;23.80;100116.72;10291738;28;20062;-60
2023/06/15 15:14:18;;;;;;;3.83;2.47;;;;;;;27.26;24.45;100124.09;10285856;28;20056;-51
2023/06/15 15:19:20;;;;;;;2.50;2.08;;;;;;;27.21;24.13;100127.53;10301892;28;20074;-53
2023/06/15 15:24:23;;;;;;;5.47;2.60;;;;;;;27.20;24.76;100130.50;10298166;28;20485;-52
2023/06/15 15:29:25;;;;;;;3.95;1.98;;;;;;;27.19;24.58;100126.09;10293917;28;20064;-52
2023/06/15 15:34:27;;;;;;;3.15;2.22;;;;;;;27.20;24.67;100127.78;10288468;28;20121;-51
2023/06/15 15:39:29;;;;;;;5.97;2.72;;;;;;;27.22;25.42;100136.56;10298289;28;20107;-53
2023/06/15 15:44:30;;;;;;;3.17;2.20;;;;;;;27.17;25.41;100119.00;10304473;28;20046;-51
2023/06/15 15:49:32;;;;;;;3.72;2.70;;;;;;;27.12;25.30;100115.28;10277009;28;20185;-53
2023/06/15 15:54:33;;;;;;;3.63;2.60;;;;;;;27.09;25.32;100129.44;10279049;28;20620;-59
2023/06/15 15:59:35;;;;;;;3.10;2.40;;;;;;;27.07;24.78;100124.19;10299705;28;20064;-60
2023/06/15 16:04:39;;;;;;;2.90;2.10;;;;;;;27.08;25.03;100120.41;10300332;28;20763;-58
2023/06/15 16:09:41;;;;;;;4.50;2.88;;;;;;;27.01;24.96;100127.88;10302713;28;20049;-59
2023/06/15 16:14:42;;;;;;;4.50;2.70;;;;;;;26.90;25.45;100125.94;10300883;28;20116;-59
2023/06/15 16:19:44;;;;;;;2.90;2.60;;;;;;;26.89;25.58;100121.53;10277857;28;20057;-59
2023/06/15 16:24:47;;;;;;;3.40;2.58;;;;;;;26.83;25.77;100127.94;10302213;28;20215;-65
2023/06/15 16:29:49;;;;;;;3.63;2.20;;;;;;;26.80;26.01;100124.63;10287338;28;20054;-59
2023/06/15 16:34:51;;;;;;;2.83;2.38;;;;;;;26.84;25.96;100124.16;10312403;28;20064;-59
2023/06/15 16:39:55;;;;;;;2.57;2.37;;;;;;;26.78;25.77;100121.31;10296696;28;20064;-59
2023/06/15 16:44:59;;;;;;;4.57;2.65;;;;;;;26.69;26.07;100122.69;10301257;28;20056;-59
2023/06/15 16:50:02;;;;;;;3.33;2.03;;;;;;;26.69;26.33;100117.22;10307899;28;20054;-59
2023/06/15 16:55:04;;;;;;;;;;;;;;;26.65;26.49;100124.22;10312820;28;20085;-60
2023/06/15 17:00:07;;;;;;;5.63;2.77;;;;;;;26.63;26.73;100115.41;10314905;28;19930;-60
2023/06/15 17:05:08;;;;;;;5.97;2.88;;;;;;;26.61;27.02;100117.53;10317551;28;20565;-59
2023/06/15 17:10:10;;;;;;;3.70;2.50;;;;;;;26.54;26.80;100127.72;10288941;28;20139;-58
2023/06/15 17:15:12;;;;;;;3.03;2.43;;;;;;;26.51;26.88;100130.91;10311226;28;20050;-59
2023/06/15 17:20:13;;;;;;;6.32;2.40;;;;;;;26.44;27.31;100134.56;10292777;28;20780;-59
2023/06/15 17:25:15;;;;;;;3.27;2.97;;;;;;;26.44;27.38;100134.56;10309823;28;20065;-58
2023/06/15 17:30:18;;;;;;;4.15;2.42;;;;;;;26.40;27.31;100136.09;10300207;28;20089;-59
2023/06/15 17:35:20;;;;;;;3.97;2.80;;;;;;;26.42;27.47;100139.44;10311958;28;20116;-58
2023/06/15 17:40:26;;;;;;;3.55;2.40;;;;;;;26.39;27.39;100142.63;10312147;28;20107;-59
2023/06/15 17:45:28;;;;;;;3.78;2.80;;;;;;;26.35;27.10;100138.69;10301655;28;20860;-58
2023/06/15 17:50:33;;;;;;;2.75;2.20;;;;;;;26.21;27.24;100148.09;10315583;28;20140;-59
2023/06/15 17:55:37;;;;;;;3.53;2.45;;;;;;;26.13;27.87;100151.16;10310067;28;20085;-59
2023/06/15 18:00:39;;;;;;;6.43;3.53;;;;;;;26.06;28.04;100141.16;10312803;28;20061;-58
2023/06/15 18:05:41;;;;;;;2.70;1.80;;;;;;;26.05;27.94;100142.22;10309249;28;20226;-59
2023/06/15 18:10:44;;;;;;;4.17;2.60;;;;;;;26.06;27.75;100149.34;10309848;28;20054;-58
2023/06/15 18:15:48;;;;;;;4.65;2.45;;;;;;;26.05;27.83;100150.41;10308835;28;20770;-59
2023/06/15 18:20:50;;;;;;;4.07;2.33;;;;;;;26.01;27.96;100151.91;10297986;28;20669;-59
2023/06/15 18:25:55;;;;;;;3.17;2.87;;;;;;;25.97;27.97;100156.13;10312179;28;20050;-58
2023/06/15 18:30:56;;;;;;;4.28;2.55;;;;;;;25.95;28.01;100155.53;10310489;28;20038;-59
2023/06/15 18:35:59;;;;;;;6.03;2.50;;;;;;;25.89;27.69;100159.97;10305931;28;20274;-57
2023/06/15 18:41:02;;;;;;;3.85;2.30;;;;;;;25.82;27.49;100158.38;10298088;28;20828;-58
2023/06/15 18:46:03;;;;;;;;;;;;;;;25.68;27.93;100165.88;10286899;28;20144;-58
2023/06/15 18:51:05;;;;;;;4.03;2.25;;;;;;;25.67;28.53;100169.66;10311526;28;20611;-58
2023/06/15 18:56:06;;;;;;;6.53;2.05;;;;;;;25.60;28.65;100164.28;10306426;28;20061;-58
2023/06/15 19:01:08;;;;;;;5.25;3.30;;;;;;;25.52;28.69;100164.56;10310430;28;20058;-58
2023/06/15 19:06:10;;;;;;;4.82;2.50;;;;;;;25.39;28.75;100155.47;10303922;28;20042;-58
2023/06/15 19:11:12;;;;;;;6.10;3.33;;;;;;;25.35;29.20;100162.41;10296530;28;20054;-58
2023/06/15 19:16:13;;;;;;;3.73;2.53;;;;;;;25.31;29.42;100166.66;10307897;28;20046;-58
2023/06/15 19:21:15;;;;;;;4.53;2.20;;;;;;;25.27;29.33;100170.84;10301797;28;20066;-59
2023/06/15 19:26:17;;;;;;;4.10;2.47;;;;;;;25.13;29.43;100170.13;10304311;28;20226;-58
2023/06/15 19:31:18;;;;;;;5.35;3.17;;;;;;;25.06;29.35;100181.06;10304632;28;20054;-58
2023/06/15 19:36:20;;;;;;;2.72;2.47;;;;;;;24.96;29.67;100164.38;10301235;28;20153;-58
2023/06/15 19:41:21;;;;;;;5.28;2.63;;;;;;;24.92;30.07;100175.91;10301222;28;20054;-58
2023/06/15 19:46:23;;;;;;;4.80;2.63;;;;;;;24.85;31.23;100181.44;10279512;28;20065;-52
2023/06/15 19:51:25;;;;;;;7.25;2.78;;;;;;;24.73;31.88;100175.84;10298832;28;20050;-52
2023/06/15 19:56:27;;;;;;;3.38;2.03;;;;;;;24.63;30.86;100181.75;10305372;28;20057;-52
2023/06/15 20:01:28;;;;;;;5.72;3.28;;;;;;;24.56;30.85;100190.97;10302281;28;20164;-52
2023/06/15 20:06:30;;;;;;;4.60;2.65;;;;;;;24.48;31.60;100183.91;10298417;28;20433;-52
2023/06/15 20:11:32;;;;;;;5.65;2.50;;;;;;;24.31;31.10;100199.88;10304234;28;20137;-52
2023/06/15 20:16:34;;;;;;;3.53;3.13;;;;;;;24.33;31.29;100198.59;10303561;28;20368;-52
2023/06/15 20:21:35;;;;;;;2.60;2.20;;;;;;;24.15;31.75;100206.63;10301880;28;20053;-52
2023/06/15 20:26:39;;;;;;;4.68;2.40;;;;;;;23.95;31.69;100196.63;10303410;28;20950;-52
2023/06/15 20:31:41;;;;;;;3.95;2.60;;;;;;;24.13;31.51;100203.28;10289369;28;20174;-52
2023/06/15 20:36:45;;;;;;;4.15;2.60;;;;;;;24.08;31.46;100197.66;10300190;28;20128;-52
2023/06/15 20:41:47;;;;;;;4.13;2.70;;;;;;;24.10;31.21;100190.94;10306225;28;20073;-52
2023/06/15 20:46:48;;;;;;;3.85;2.88;;;;;;;24.09;30.98;100196.59;10305212;28;20135;-52
2023/06/15 20:51:50;;;;;;;5.05;2.75;;;;;;;23.99;31.74;100195.19;10304149;28;20054;-52
2023/06/15 20:56:51;;;;;;;3.03;2.45;;;;;;;23.93;30.92;100196.03;10305995;28;20195;-52
2023/06/15 21:01:53;;;;;;;3.30;2.70;;;;;;;23.81;31.74;100192.28;10289914;28;20202;-52
2023/06/15 21:06:55;;;;;;;5.65;2.88;;;;;;;23.69;31.25;100192.06;10292484;28;23068;-53
2023/06/15 21:11:57;;;;;;;2.78;2.25;;;;;;;23.30;31.82;100186.47;10295871;28;20062;-53
2023/06/15 21:16:58;;;;;;;3.72;2.83;;;;;;;23.36;31.71;100194.81;10305366;28;20149;-52
2023/06/15 21:22:03;;;;;;;5.75;3.22;;;;;;;23.24;33.02;100200.88;10304217;28;20660;-59
2023/06/15 21:27:05;;;;;;;5.95;3.60;;;;;;;22.99;33.78;100203.31;10311791;28;20696;-53
2023/06/15 21:32:07;;;;;;;4.60;3.20;;;;;;;22.77;34.08;100199.94;10307505;28;20515;-52
2023/06/15 21:37:09;;;;;;;4.70;3.20;;;;;;;22.76;34.94;100200.97;10309288;28;20050;-53
2023/06/15 21:42:11;;;;;;;4.20;3.65;;;;;;;22.54;34.68;100192.16;10309989;28;20057;-53
2023/06/15 21:47:12;;;;;;;4.25;2.63;;;;;;;22.55;35.04;100202.78;10310612;28;20141;-53
2023/06/15 21:52:16;;;;;;;5.75;2.92;;;;;;;22.38;34.88;100193.34;10308330;28;20679;-52
2023/06/15 21:57:17;;;;;;;5.35;2.78;;;;;;;22.34;34.82;100205.63;10306899;28;20137;-53
2023/06/15 22:02:19;;;;;;;4.00;2.97;;;;;;;22.03;35.27;100204.19;10301921;28;20068;-52
2023/06/15 22:07:20;;;;;;;3.70;2.47;;;;;;;22.05;34.86;100205.69;10297372;28;20378;-53
2023/06/15 22:12:21;;;;;;;4.40;3.00;;;;;;;22.22;34.41;100208.88;10306100;28;20585;-52
2023/06/15 22:17:25;;;;;;;3.85;3.00;;;;;;;22.40;34.31;100207.53;10311252;28;20062;-52
2023/06/15 22:22:27;;;;;;;3.22;2.20;;;;;;;22.36;34.12;100201.66;10306713;28;20057;-52
2023/06/15 22:27:28;;;;;;;4.35;2.80;;;;;;;22.15;33.07;100205.28;10299981;28;20050;-53
2023/06/15 22:32:30;;;;;;;6.10;2.72;;;;;;;22.13;33.42;100199.25;10310139;28;20053;-52
2023/06/15 22:37:31;;;;;;;7.20;3.10;;;;;;;22.04;33.46;100195.03;10308278;28;20049;-52
2023/06/15 22:42:33;;;;;;;3.70;2.33;;;;;;;22.21;33.36;100203.66;10305600;28;20129;-52
2023/06/15 22:47:40;;;;;;;3.53;2.60;;;;;;;22.02;33.28;100202.50;10309502;28;20049;-51
2023/06/15 22:52:42;;;;;;;7.03;2.75;;;;;;;21.89;34.44;100198.69;10303920;28;20751;-51
2023/06/15 22:57:43;;;;;;;4.43;3.15;;;;;;;21.87;34.09;100200.78;10292439;28;20053;-51
2023/06/15 23:02:45;;;;;;;4.88;2.75;;;;;;;21.92;33.87;100202.03;10306681;28;20050;-51
2023/06/15 23:07:48;;;;;;;5.90;2.63;;;;;;;21.76;33.46;100198.59;10290632;28;20042;-51
2023/06/15 23:12:50;;;;;;;3.00;2.70;;;;;;;21.88;34.02;100196.19;10304717;28;20189;-51
2023/06/15 23:17:52;;;;;;;2.50;2.30;;;;;;;21.83;34.00;100202.22;10306616;28;20052;-51
2023/06/15 23:22:58;;;;;;;3.85;2.45;;;;;;;21.93;33.87;100209.13;10304240;28;20523;-51